Campbell Hill, Illinois
Current Conditions -  °F | °C
As of 8:15 PM on Saturday 22 Nov 2014 (Local Time) from KSAR Reporting Station
Broken Clouds Broken Clouds  
Wind Chill: 55°   Ceiling: 10000
Heat Index: 55°   Visibility: 10mi
Dew Point: 47°   Wind: 10mph
Humidity: 75%   Direction: 180°S
Pressure: 29.96"   Gusts: 17mph
Location:  37.93°N, 89.55°W
Report Text: KSAR 230215Z AUTO 18009G15KT 10SM SCT060 BKN100 BKN120 13/08 A2996 RMK AO2 T01250081
Loading
Personal Weather Stations






























Interactive Weather Map New forecast layout! Learn more

10-Day Weather Forecast

Advertisements
Track Severe Weather on mobile